Baxter Estates, New York
Current Conditions -  °F | °C
As of 9:16 AM on Tuesday 27 Jan 2015 (Local Time) from KLGA Reporting Station
Light Snow Light Snow  
Wind Chill:   Ceiling: 2700
Heat Index: 23°   Visibility: 2mi
Dew Point: 16°   Wind: 20mph
Humidity: 74%   Direction: 340°NNW
Pressure: 29.69"   Gusts: 28mph
Location:  40.8387°N, 73.6912°W
Report Text: KLGA 271416Z 34017G24KT 2SM -SN BKN027 OVC036 M05/M09 A2969 RMK AO2 PK WND 35026/1400 SNB16 P0001 $
Loading
Personal Weather Stations






























Interactive Weather Map New forecast layout! Learn more

10-Day Weather Forecast

Advertisements
Track Severe Weather on mobile